Swan River — VRMD2 — position and weather

sailwx.info

Track history (hours):
 
Tides and Currents Weather Stations Pressure Air Temp Water Temp Dewpoint Dewpoint Depression Visibility Wind Speed Wind Dir Waves Ship Positions

Swan River

Last reported at 2018-Jan-21 01:21 UTC. Time now 2018-Feb-23 06:54 UTC.
Position N 48°04' W 125°34'.
Warning: this ship's position is 33 days out of date.

Length 190 m; draft 13.6 m.

Type: Cargo ship. MMSI: 477220600.

Date/timePositionNaut miles runAvg speedWind from/ knotsBaromVisibWave heightAir tempDewpointWater temp
2018-Jan-21 01:21N 48°04' W 125°34'2 4.9
2018-Jan-21 00:58N 48°05' W 125°32'3 5.4
2018-Jan-21 00:24N 48°08' W 125°31'3 5.7
2018-Jan-20 23:57N 48°11' W 125°30'2 5.5
2018-Jan-20 23:30N 48°13' W 125°28'3 6.0
2018-Jan-20 23:00N 48°16' W 125°27'3 5.7
2018-Jan-20 22:30N 48°18' W 125°24'3 6.6
2018-Jan-20 22:00N 48°20' W 125°20'3 6.3
2018-Jan-20 21:30N 48°22' W 125°16'3 6.5
2018-Jan-20 21:01N 48°23' W 125°12'4 7.0
2018-Jan-20 20:30N 48°25' W 125°08'3 6.8
2018-Jan-20 20:00N 48°28' W 125°05'3 6.6
2018-Jan-20 19:31N 48°30' W 125°01'4 7.0
2018-Jan-20 19:00N 48°31' W 124°56'4 7.4
2018-Jan-20 18:31N 48°31' W 124°50'4 7.7
2018-Jan-20 18:00N 48°30' W 124°44'4 7.5
2018-Jan-20 17:30N 48°29' W 124°39'4 8.4
2018-Jan-20 17:01N 48°28' W 124°33'4 8.2
2018-Jan-20 16:30N 48°26' W 124°27'4 8.1
2018-Jan-20 16:00N 48°24' W 124°22'4 7.7
2018-Jan-20 15:31N 48°23' W 124°16'4 7.4
2018-Jan-20 15:00N 48°22' W 124°11'4 8.1
2018-Jan-20 14:30N 48°20' W 124°06'4 8.2
2018-Jan-20 14:00N 48°18' W 124°00'4 7.6
2018-Jan-20 13:30N 48°17' W 123°55'4 7.0
2018-Jan-20 13:00N 48°16' W 123°50'3 6.2
2018-Jan-20 12:30N 48°16' W 123°45'3 5.9
2018-Jan-20 12:00N 48°16' W 123°40'3 6.4
2018-Jan-20 11:29N 48°15' W 123°36'3 5.9
2018-Jan-20 11:00N 48°16' W 123°31'3 6.3
2018-Jan-20 10:31N 48°18' W 123°28'4 8.3
2018-Jan-20 10:00N 48°21' W 123°25'3 6.7
2018-Jan-20 09:30N 48°23' W 123°20'4 8.0
2018-Jan-20 09:00N 48°24' W 123°15'510.2
2018-Jan-20 08:30N 48°29' W 123°12'713.1
2018-Jan-20 08:01N 48°35' W 123°14'613.0
2018-Jan-20 07:30N 48°42' W 123°15'713.2
2018-Jan-20 07:00N 48°45' W 123°06'510.7
2018-Jan-20 06:30N 48°49' W 123°01'612.7
2018-Jan-20 06:01N 48°53' W 123°08'612.5
2018-Jan-20 05:31N 48°58' W 123°15'612.1
2018-Jan-20 05:00N 49°02' W 123°21'510.3
2018-Jan-20 04:30N 49°07' W 123°23'510.7
2018-Jan-20 04:01N 49°12' W 123°22'510.6
2018-Jan-20 03:30N 49°17' W 123°19'510.0
2018-Jan-20 03:00N 49°19' W 123°12'4 8.2
2018-Jan-20 02:30N 49°18' W 123°06'1 1.9
2018-Jan-20 02:00N 49°18' W 123°04'0 0.1
2018-Jan-20 01:30N 49°18' W 123°04'0 0.0
2018-Jan-20 01:00N 49°18' W 123°04'0 0.0
2018-Jan-20 00:30N 49°18' W 123°04'0 0.0
2018-Jan-20 00:00N 49°18' W 123°04'0 0.0
2018-Jan-19 23:30N 49°18' W 123°04'0 0.0
2018-Jan-19 23:00N 49°18' W 123°04'0 0.0
2018-Jan-19 22:30N 49°18' W 123°04'0 0.1
2018-Jan-19 22:00N 49°18' W 123°04'0 0.0
2018-Jan-19 21:30N 49°18' W 123°04'0 0.0
2018-Jan-19 21:00N 49°18' W 123°04'0 0.0
2018-Jan-19 20:29N 49°18' W 123°04'0 0.0
2018-Jan-19 19:59N 49°18' W 123°04'0 0.0
2018-Jan-19 19:29N 49°18' W 123°04'0 0.0
2018-Jan-19 18:59N 49°18' W 123°04'0 0.0
2018-Jan-19 18:29N 49°18' W 123°04'0 0.0
2018-Jan-19 17:59N 49°18' W 123°04'0 0.1
2018-Jan-19 17:29N 49°18' W 123°04'0 0.1
2018-Jan-19 16:59N 49°18' W 123°04'0 0.2
2018-Jan-19 16:29N 49°18' W 123°04'0 0.0
2018-Jan-19 15:59N 49°18' W 123°04'0 0.0
2018-Jan-19 15:29N 49°18' W 123°04'0 0.0
2018-Jan-19 14:59N 49°18' W 123°04'0 0.1
2018-Jan-19 14:29N 49°18' W 123°04'0 0.2
2018-Jan-19 13:59N 49°18' W 123°04'0 0.1
2018-Jan-19 13:29N 49°18' W 123°04'0 0.1
2018-Jan-19 12:59N 49°18' W 123°04'0 0.0
2018-Jan-19 12:26N 49°18' W 123°04'0 0.2
2018-Jan-19 11:56N 49°18' W 123°04'0 0.1
2018-Jan-19 11:29N 49°18' W 123°04'0 0.1
2018-Jan-19 10:59N 49°18' W 123°04'0 0.1
2018-Jan-19 10:29N 49°18' W 123°04'0 0.1
2018-Jan-19 09:59N 49°18' W 123°04'0 0.1
2018-Jan-19 09:29N 49°18' W 123°04'0 0.1
2018-Jan-19 08:59N 49°18' W 123°04'0 0.1
2018-Jan-19 08:29N 49°18' W 123°04'0 0.0
2018-Jan-19 07:59N 49°18' W 123°04'0 0.2
2018-Jan-19 07:29N 49°18' W 123°04'0 0.1
2018-Jan-19 06:59N 49°18' W 123°04'0 0.1
2018-Jan-19 06:29N 49°18' W 123°04'0 0.1
2018-Jan-19 05:59N 49°18' W 123°04'0 0.0
2018-Jan-19 05:29N 49°18' W 123°04'0 0.0
2018-Jan-19 04:59N 49°18' W 123°04'0 0.0
2018-Jan-19 04:29N 49°18' W 123°04'0 0.0
2018-Jan-19 03:59N 49°18' W 123°04'0 0.0
2018-Jan-19 03:29N 49°18' W 123°04'0 0.0
2018-Jan-19 02:59N 49°18' W 123°04'0 0.0
2018-Jan-19 02:29N 49°18' W 123°04'0 0.1
2018-Jan-19 01:59N 49°18' W 123°04'0 0.1
2018-Jan-19 01:29N 49°18' W 123°04'0 0.1
2018-Jan-19 00:59N 49°18' W 123°04'0 0.0
2018-Jan-19 00:29N 49°18' W 123°04'0 0.0
2018-Jan-18 23:59N 49°18' W 123°04'0 0.0
2018-Jan-18 23:29N 49°18' W 123°04'0 0.1
2018-Jan-18 22:59N 49°18' W 123°04'0 0.1
2018-Jan-18 22:29N 49°18' W 123°04'0 0.0
2018-Jan-18 21:59N 49°18' W 123°04'0 0.0
2018-Jan-18 21:29N 49°18' W 123°04'0 0.0
2018-Jan-18 20:59N 49°18' W 123°04'0 0.0
2018-Jan-18 20:29N 49°18' W 123°04'0 0.0
2018-Jan-18 19:59N 49°18' W 123°04'0 0.0
2018-Jan-18 19:29N 49°18' W 123°04'0 0.0
2018-Jan-18 18:59N 49°18' W 123°04'0 0.0
2018-Jan-18 18:29N 49°18' W 123°04'0 0.0
2018-Jan-18 17:59N 49°18' W 123°04'0 0.0
2018-Jan-18 17:29N 49°18' W 123°04'0 0.1
2018-Jan-18 16:59N 49°18' W 123°04'1 1.1
2018-Jan-18 16:29N 49°18' W 123°05'0 0.3
2018-Jan-18 15:59N 49°17' W 123°05'0 0.0
2018-Jan-18 15:29N 49°17' W 123°05'0 0.0
2018-Jan-18 14:59N 49°17' W 123°05'0 0.0
2018-Jan-18 14:29N 49°17' W 123°05'0 0.0
2018-Jan-18 13:59N 49°17' W 123°05'0 0.0
2018-Jan-18 13:29N 49°17' W 123°05'0 0.0
2018-Jan-18 12:59N 49°17' W 123°05'0 0.0
2018-Jan-18 12:29N 49°17' W 123°05'0 0.0
2018-Jan-18 11:59N 49°17' W 123°05'0 0.0
2018-Jan-18 11:29N 49°17' W 123°05'0 0.0
2018-Jan-18 10:59N 49°17' W 123°05'0 0.0
2018-Jan-18 10:29N 49°17' W 123°05'0 0.0
2018-Jan-18 09:59N 49°17' W 123°05'0 0.0
2018-Jan-18 09:29N 49°17' W 123°05'0 0.0
2018-Jan-18 08:58N 49°17' W 123°05'0 0.0
2018-Jan-18 08:28N 49°17' W 123°05'0 0.0
2018-Jan-18 07:58N 49°17' W 123°05'0 0.0
2018-Jan-18 07:28N 49°17' W 123°05'0 0.0
2018-Jan-18 06:58N 49°17' W 123°05'0 0.0
2018-Jan-18 06:28N 49°17' W 123°05'0 0.0
2018-Jan-18 05:58N 49°17' W 123°05'0 0.0
2018-Jan-18 05:28N 49°17' W 123°05'0 0.0
2018-Jan-18 04:58N 49°17' W 123°05'0 0.0
2018-Jan-18 04:28N 49°17' W 123°05'0 0.0
2018-Jan-18 03:58N 49°17' W 123°05'0 0.0
2018-Jan-18 03:28N 49°17' W 123°05'0 0.0
2018-Jan-18 02:58N 49°17' W 123°05'0 0.0
2018-Jan-18 02:28N 49°17' W 123°05'0 0.0
2018-Jan-18 01:58N 49°17' W 123°05'0 0.0
2018-Jan-18 01:28N 49°17' W 123°05'0 0.0
2018-Jan-18 00:58N 49°17' W 123°05'0 0.0
2018-Jan-17 23:58N 49°17' W 123°05'0 0.0
2018-Jan-17 23:55N 49°17' W 123°05'  
2018-Jan-12 14:58N 49°17' W 123°05'0 0.0
2018-Jan-12 14:28N 49°17' W 123°05'0 0.0
2018-Jan-12 13:58N 49°17' W 123°05'0 0.0
2018-Jan-12 13:28N 49°17' W 123°05'0 0.0
2018-Jan-12 12:58N 49°17' W 123°05'0 0.0
2018-Jan-12 12:28N 49°17' W 123°05'0 0.0
2018-Jan-12 11:58N 49°17' W 123°05'0 0.0
2018-Jan-12 11:28N 49°17' W 123°05'0 0.0
2018-Jan-12 11:01N 49°17' W 123°05'0 0.0
2018-Jan-12 10:30N 49°17' W 123°05'0 0.0
2018-Jan-12 10:00N 49°17' W 123°05'0 0.0
2018-Jan-12 09:30N 49°17' W 123°05'0 0.0
2018-Jan-12 09:00N 49°17' W 123°05'0 0.0
2018-Jan-12 08:30N 49°17' W 123°05'0 0.0
2018-Jan-12 08:00N 49°17' W 123°05'0 0.0
2018-Jan-12 07:30N 49°17' W 123°05'0 0.0
2018-Jan-12 07:00N 49°17' W 123°05'0 0.0
2018-Jan-12 06:30N 49°17' W 123°05'0 0.0
2018-Jan-12 06:00N 49°17' W 123°05'0 0.0
2018-Jan-12 05:30N 49°17' W 123°05'0 0.0
2018-Jan-12 05:00N 49°17' W 123°05'0 0.0
2018-Jan-12 04:30N 49°17' W 123°05'0 0.0
2018-Jan-12 04:00N 49°17' W 123°05'0 0.0
2018-Jan-12 03:30N 49°17' W 123°05'0 0.0
2018-Jan-12 03:00N 49°17' W 123°05'0 0.0
2018-Jan-12 02:30N 49°17' W 123°05'0 0.0
2018-Jan-12 02:00N 49°17' W 123°05'0 0.0
2018-Jan-12 01:30N 49°17' W 123°05'0 0.0
2018-Jan-12 01:00N 49°17' W 123°05'0 0.0
2018-Jan-12 00:30N 49°17' W 123°05'0 0.0
2018-Jan-12 00:00N 49°17' W 123°05'0 0.0
2018-Jan-11 23:30N 49°17' W 123°05'0 0.0
2018-Jan-11 23:00N 49°17' W 123°05'0 0.0
2018-Jan-11 22:30N 49°17' W 123°05'0 0.0
2018-Jan-11 22:00N 49°17' W 123°05'0 0.0
2018-Jan-11 21:30N 49°17' W 123°05'0 0.0
2018-Jan-11 21:00N 49°17' W 123°05'0 0.0
2018-Jan-11 20:30N 49°17' W 123°05'0 0.0
2018-Jan-11 20:00N 49°17' W 123°05'0 0.0
2018-Jan-11 19:30N 49°17' W 123°05'0 0.0
2018-Jan-11 19:00N 49°17' W 123°05'0 0.0
2018-Jan-11 18:30N 49°17' W 123°05'0 0.0
2018-Jan-11 18:00N 49°17' W 123°05'0 0.0
2018-Jan-11 17:30N 49°17' W 123°05'0 0.0
2018-Jan-11 17:00N 49°17' W 123°05'0 0.0
2018-Jan-11 16:30N 49°17' W 123°05'0 0.0
2018-Jan-11 16:00N 49°17' W 123°05'0 0.0
2018-Jan-11 15:30N 49°17' W 123°05'0 0.0
2018-Jan-11 15:00N 49°17' W 123°05'0 0.0
2018-Jan-11 14:30N 49°17' W 123°05'0 0.0
2018-Jan-11 14:00N 49°17' W 123°05'0 0.0
2018-Jan-11 13:30N 49°17' W 123°05'0 0.0
2018-Jan-11 13:00N 49°17' W 123°05'0 0.0
2018-Jan-11 12:30N 49°17' W 123°05'0 0.0
2018-Jan-11 12:00N 49°17' W 123°05'0 0.0
2018-Jan-11 11:30N 49°17' W 123°05'0 0.0
2018-Jan-11 11:00N 49°17' W 123°05'0 0.0
2018-Jan-11 10:30N 49°17' W 123°05'0 0.0
2018-Jan-11 10:00N 49°17' W 123°05'0 0.0
2018-Jan-11 09:30N 49°17' W 123°05'0 0.0
2018-Jan-11 09:00N 49°17' W 123°05'0 0.0
2018-Jan-11 08:30N 49°17' W 123°05'0 0.0
2018-Jan-11 08:00N 49°17' W 123°05'0 0.0
2018-Jan-11 07:30N 49°17' W 123°05'0 0.0
2018-Jan-11 07:00N 49°17' W 123°05'0 0.0
2018-Jan-11 06:30N 49°17' W 123°05'0 0.0
2018-Jan-11 06:00N 49°17' W 123°05'0 0.0
2018-Jan-11 05:30N 49°17' W 123°05'0 0.0
2018-Jan-11 05:00N 49°17' W 123°05'0 0.0
2018-Jan-11 04:30N 49°17' W 123°05'0 0.0
2018-Jan-11 04:00N 49°17' W 123°05'0 0.0
2018-Jan-11 03:30N 49°17' W 123°05'0 0.0
2018-Jan-11 03:00N 49°17' W 123°05'0 0.0
2018-Jan-11 02:30N 49°17' W 123°05'0 0.0
2018-Jan-11 02:00N 49°17' W 123°05'0 0.0
2018-Jan-11 01:30N 49°17' W 123°05'  
Track history (hours):
 
Tides and Currents Weather Stations Pressure Air Temp Water Temp Dewpoint Dewpoint Depression Visibility Wind Speed Wind Dir Waves Ship Positions

Swan River

Last reported at 2018-Jan-21 01:21 UTC. Time now 2018-Feb-23 06:54 UTC.
Position N 48°04' W 125°34'.
Warning: this ship's position is 33 days out of date.

Length 190 m; draft 13.6 m.

Type: Cargo ship. MMSI: 477220600.

Date/timePositionNaut miles runAvg speedWind from/ knotsBaromVisibWave heightAir tempDewpointWater temp
2018-Jan-21 01:21N 48°04' W 125°34'2 4.9
2018-Jan-21 00:58N 48°05' W 125°32'3 5.4
2018-Jan-21 00:24N 48°08' W 125°31'3 5.7
2018-Jan-20 23:57N 48°11' W 125°30'2 5.5
2018-Jan-20 23:30N 48°13' W 125°28'3 6.0
2018-Jan-20 23:00N 48°16' W 125°27'3 5.7
2018-Jan-20 22:30N 48°18' W 125°24'3 6.6
2018-Jan-20 22:00N 48°20' W 125°20'3 6.3
2018-Jan-20 21:30N 48°22' W 125°16'3 6.5
2018-Jan-20 21:01N 48°23' W 125°12'4 7.0
2018-Jan-20 20:30N 48°25' W 125°08'3 6.8
2018-Jan-20 20:00N 48°28' W 125°05'3 6.6
2018-Jan-20 19:31N 48°30' W 125°01'4 7.0
2018-Jan-20 19:00N 48°31' W 124°56'4 7.4
2018-Jan-20 18:31N 48°31' W 124°50'4 7.7
2018-Jan-20 18:00N 48°30' W 124°44'4 7.5
2018-Jan-20 17:30N 48°29' W 124°39'4 8.4
2018-Jan-20 17:01N 48°28' W 124°33'4 8.2
2018-Jan-20 16:30N 48°26' W 124°27'4 8.1
2018-Jan-20 16:00N 48°24' W 124°22'4 7.7
2018-Jan-20 15:31N 48°23' W 124°16'4 7.4
2018-Jan-20 15:00N 48°22' W 124°11'4 8.1
2018-Jan-20 14:30N 48°20' W 124°06'4 8.2
2018-Jan-20 14:00N 48°18' W 124°00'4 7.6
2018-Jan-20 13:30N 48°17' W 123°55'4 7.0
2018-Jan-20 13:00N 48°16' W 123°50'3 6.2
2018-Jan-20 12:30N 48°16' W 123°45'3 5.9
2018-Jan-20 12:00N 48°16' W 123°40'3 6.4
2018-Jan-20 11:29N 48°15' W 123°36'3 5.9
2018-Jan-20 11:00N 48°16' W 123°31'3 6.3
2018-Jan-20 10:31N 48°18' W 123°28'4 8.3
2018-Jan-20 10:00N 48°21' W 123°25'3 6.7
2018-Jan-20 09:30N 48°23' W 123°20'4 8.0
2018-Jan-20 09:00N 48°24' W 123°15'510.2
2018-Jan-20 08:30N 48°29' W 123°12'713.1
2018-Jan-20 08:01N 48°35' W 123°14'613.0
2018-Jan-20 07:30N 48°42' W 123°15'713.2
2018-Jan-20 07:00N 48°45' W 123°06'510.7
2018-Jan-20 06:30N 48°49' W 123°01'612.7
2018-Jan-20 06:01N 48°53' W 123°08'612.5
2018-Jan-20 05:31N 48°58' W 123°15'612.1
2018-Jan-20 05:00N 49°02' W 123°21'510.3
2018-Jan-20 04:30N 49°07' W 123°23'510.7
2018-Jan-20 04:01N 49°12' W 123°22'510.6
2018-Jan-20 03:30N 49°17' W 123°19'510.0
2018-Jan-20 03:00N 49°19' W 123°12'4 8.2
2018-Jan-20 02:30N 49°18' W 123°06'1 1.9
2018-Jan-20 02:00N 49°18' W 123°04'0 0.1
2018-Jan-20 01:30N 49°18' W 123°04'0 0.0
2018-Jan-20 01:00N 49°18' W 123°04'0 0.0
2018-Jan-20 00:30N 49°18' W 123°04'0 0.0
2018-Jan-20 00:00N 49°18' W 123°04'0 0.0
2018-Jan-19 23:30N 49°18' W 123°04'0 0.0
2018-Jan-19 23:00N 49°18' W 123°04'0 0.0
2018-Jan-19 22:30N 49°18' W 123°04'0 0.1
2018-Jan-19 22:00N 49°18' W 123°04'0 0.0
2018-Jan-19 21:30N 49°18' W 123°04'0 0.0
2018-Jan-19 21:00N 49°18' W 123°04'0 0.0
2018-Jan-19 20:29N 49°18' W 123°04'0 0.0
2018-Jan-19 19:59N 49°18' W 123°04'0 0.0
2018-Jan-19 19:29N 49°18' W 123°04'0 0.0
2018-Jan-19 18:59N 49°18' W 123°04'0 0.0
2018-Jan-19 18:29N 49°18' W 123°04'0 0.0
2018-Jan-19 17:59N 49°18' W 123°04'0 0.1
2018-Jan-19 17:29N 49°18' W 123°04'0 0.1
2018-Jan-19 16:59N 49°18' W 123°04'0 0.2
2018-Jan-19 16:29N 49°18' W 123°04'0 0.0
2018-Jan-19 15:59N 49°18' W 123°04'0 0.0
2018-Jan-19 15:29N 49°18' W 123°04'0 0.0
2018-Jan-19 14:59N 49°18' W 123°04'0 0.1
2018-Jan-19 14:29N 49°18' W 123°04'0 0.2
2018-Jan-19 13:59N 49°18' W 123°04'0 0.1
2018-Jan-19 13:29N 49°18' W 123°04'0 0.1
2018-Jan-19 12:59N 49°18' W 123°04'0 0.0
2018-Jan-19 12:26N 49°18' W 123°04'0 0.2
2018-Jan-19 11:56N 49°18' W 123°04'0 0.1
2018-Jan-19 11:29N 49°18' W 123°04'0 0.1
2018-Jan-19 10:59N 49°18' W 123°04'0 0.1
2018-Jan-19 10:29N 49°18' W 123°04'0 0.1
2018-Jan-19 09:59N 49°18' W 123°04'0 0.1
2018-Jan-19 09:29N 49°18' W 123°04'0 0.1
2018-Jan-19 08:59N 49°18' W 123°04'0 0.1
2018-Jan-19 08:29N 49°18' W 123°04'0 0.0
2018-Jan-19 07:59N 49°18' W 123°04'0 0.2
2018-Jan-19 07:29N 49°18' W 123°04'0 0.1
2018-Jan-19 06:59N 49°18' W 123°04'0 0.1
2018-Jan-19 06:29N 49°18' W 123°04'0 0.1
2018-Jan-19 05:59N 49°18' W 123°04'0 0.0
2018-Jan-19 05:29N 49°18' W 123°04'0 0.0
2018-Jan-19 04:59N 49°18' W 123°04'0 0.0
2018-Jan-19 04:29N 49°18' W 123°04'0 0.0
2018-Jan-19 03:59N 49°18' W 123°04'0 0.0
2018-Jan-19 03:29N 49°18' W 123°04'0 0.0
2018-Jan-19 02:59N 49°18' W 123°04'0 0.0
2018-Jan-19 02:29N 49°18' W 123°04'0 0.1
2018-Jan-19 01:59N 49°18' W 123°04'0 0.1
2018-Jan-19 01:29N 49°18' W 123°04'0 0.1
2018-Jan-19 00:59N 49°18' W 123°04'0 0.0
2018-Jan-19 00:29N 49°18' W 123°04'0 0.0
2018-Jan-18 23:59N 49°18' W 123°04'0 0.0
2018-Jan-18 23:29N 49°18' W 123°04'0 0.1
2018-Jan-18 22:59N 49°18' W 123°04'0 0.1
2018-Jan-18 22:29N 49°18' W 123°04'0 0.0
2018-Jan-18 21:59N 49°18' W 123°04'0 0.0
2018-Jan-18 21:29N 49°18' W 123°04'0 0.0
2018-Jan-18 20:59N 49°18' W 123°04'0 0.0
2018-Jan-18 20:29N 49°18' W 123°04'0 0.0
2018-Jan-18 19:59N 49°18' W 123°04'0 0.0
2018-Jan-18 19:29N 49°18' W 123°04'0 0.0
2018-Jan-18 18:59N 49°18' W 123°04'0 0.0
2018-Jan-18 18:29N 49°18' W 123°04'0 0.0
2018-Jan-18 17:59N 49°18' W 123°04'0 0.0
2018-Jan-18 17:29N 49°18' W 123°04'0 0.1
2018-Jan-18 16:59N 49°18' W 123°04'1 1.1
2018-Jan-18 16:29N 49°18' W 123°05'0 0.3
2018-Jan-18 15:59N 49°17' W 123°05'0 0.0
2018-Jan-18 15:29N 49°17' W 123°05'0 0.0
2018-Jan-18 14:59N 49°17' W 123°05'0 0.0
2018-Jan-18 14:29N 49°17' W 123°05'0 0.0
2018-Jan-18 13:59N 49°17' W 123°05'0 0.0
2018-Jan-18 13:29N 49°17' W 123°05'0 0.0
2018-Jan-18 12:59N 49°17' W 123°05'0 0.0
2018-Jan-18 12:29N 49°17' W 123°05'0 0.0
2018-Jan-18 11:59N 49°17' W 123°05'0 0.0
2018-Jan-18 11:29N 49°17' W 123°05'0 0.0
2018-Jan-18 10:59N 49°17' W 123°05'0 0.0
2018-Jan-18 10:29N 49°17' W 123°05'0 0.0
2018-Jan-18 09:59N 49°17' W 123°05'0 0.0
2018-Jan-18 09:29N 49°17' W 123°05'0 0.0
2018-Jan-18 08:58N 49°17' W 123°05'0 0.0
2018-Jan-18 08:28N 49°17' W 123°05'0 0.0
2018-Jan-18 07:58N 49°17' W 123°05'0 0.0
2018-Jan-18 07:28N 49°17' W 123°05'0 0.0
2018-Jan-18 06:58N 49°17' W 123°05'0 0.0
2018-Jan-18 06:28N 49°17' W 123°05'0 0.0
2018-Jan-18 05:58N 49°17' W 123°05'0 0.0
2018-Jan-18 05:28N 49°17' W 123°05'0 0.0
2018-Jan-18 04:58N 49°17' W 123°05'0 0.0
2018-Jan-18 04:28N 49°17' W 123°05'0 0.0
2018-Jan-18 03:58N 49°17' W 123°05'0 0.0
2018-Jan-18 03:28N 49°17' W 123°05'0 0.0
2018-Jan-18 02:58N 49°17' W 123°05'0 0.0
2018-Jan-18 02:28N 49°17' W 123°05'0 0.0
2018-Jan-18 01:58N 49°17' W 123°05'0 0.0
2018-Jan-18 01:28N 49°17' W 123°05'0 0.0
2018-Jan-18 00:58N 49°17' W 123°05'0 0.0
2018-Jan-17 23:58N 49°17' W 123°05'0 0.0
2018-Jan-17 23:55N 49°17' W 123°05'  
2018-Jan-12 14:58N 49°17' W 123°05'0 0.0
2018-Jan-12 14:28N 49°17' W 123°05'0 0.0
2018-Jan-12 13:58N 49°17' W 123°05'0 0.0
2018-Jan-12 13:28N 49°17' W 123°05'0 0.0
2018-Jan-12 12:58N 49°17' W 123°05'0 0.0
2018-Jan-12 12:28N 49°17' W 123°05'0 0.0
2018-Jan-12 11:58N 49°17' W 123°05'0 0.0
2018-Jan-12 11:28N 49°17' W 123°05'0 0.0
2018-Jan-12 11:01N 49°17' W 123°05'0 0.0
2018-Jan-12 10:30N 49°17' W 123°05'0 0.0
2018-Jan-12 10:00N 49°17' W 123°05'0 0.0
2018-Jan-12 09:30N 49°17' W 123°05'0 0.0
2018-Jan-12 09:00N 49°17' W 123°05'0 0.0
2018-Jan-12 08:30N 49°17' W 123°05'0 0.0
2018-Jan-12 08:00N 49°17' W 123°05'0 0.0
2018-Jan-12 07:30N 49°17' W 123°05'0 0.0
2018-Jan-12 07:00N 49°17' W 123°05'0 0.0
2018-Jan-12 06:30N 49°17' W 123°05'0 0.0
2018-Jan-12 06:00N 49°17' W 123°05'0 0.0
2018-Jan-12 05:30N 49°17' W 123°05'0 0.0
2018-Jan-12 05:00N 49°17' W 123°05'0 0.0
2018-Jan-12 04:30N 49°17' W 123°05'0 0.0
2018-Jan-12 04:00N 49°17' W 123°05'0 0.0
2018-Jan-12 03:30N 49°17' W 123°05'0 0.0
2018-Jan-12 03:00N 49°17' W 123°05'0 0.0
2018-Jan-12 02:30N 49°17' W 123°05'0 0.0
2018-Jan-12 02:00N 49°17' W 123°05'0 0.0
2018-Jan-12 01:30N 49°17' W 123°05'0 0.0
2018-Jan-12 01:00N 49°17' W 123°05'0 0.0
2018-Jan-12 00:30N 49°17' W 123°05'0 0.0
2018-Jan-12 00:00N 49°17' W 123°05'0 0.0
2018-Jan-11 23:30N 49°17' W 123°05'0 0.0
2018-Jan-11 23:00N 49°17' W 123°05'0 0.0
2018-Jan-11 22:30N 49°17' W 123°05'0 0.0
2018-Jan-11 22:00N 49°17' W 123°05'0 0.0
2018-Jan-11 21:30N 49°17' W 123°05'0 0.0
2018-Jan-11 21:00N 49°17' W 123°05'0 0.0
2018-Jan-11 20:30N 49°17' W 123°05'0 0.0
2018-Jan-11 20:00N 49°17' W 123°05'0 0.0
2018-Jan-11 19:30N 49°17' W 123°05'0 0.0
2018-Jan-11 19:00N 49°17' W 123°05'0 0.0
2018-Jan-11 18:30N 49°17' W 123°05'0 0.0
2018-Jan-11 18:00N 49°17' W 123°05'0 0.0
2018-Jan-11 17:30N 49°17' W 123°05'0 0.0
2018-Jan-11 17:00N 49°17' W 123°05'0 0.0
2018-Jan-11 16:30N 49°17' W 123°05'0 0.0
2018-Jan-11 16:00N 49°17' W 123°05'0 0.0
2018-Jan-11 15:30N 49°17' W 123°05'0 0.0
2018-Jan-11 15:00N 49°17' W 123°05'0 0.0
2018-Jan-11 14:30N 49°17' W 123°05'0 0.0
2018-Jan-11 14:00N 49°17' W 123°05'0 0.0
2018-Jan-11 13:30N 49°17' W 123°05'0 0.0
2018-Jan-11 13:00N 49°17' W 123°05'0 0.0
2018-Jan-11 12:30N 49°17' W 123°05'0 0.0
2018-Jan-11 12:00N 49°17' W 123°05'0 0.0
2018-Jan-11 11:30N 49°17' W 123°05'0 0.0
2018-Jan-11 11:00N 49°17' W 123°05'0 0.0
2018-Jan-11 10:30N 49°17' W 123°05'0 0.0
2018-Jan-11 10:00N 49°17' W 123°05'0 0.0
2018-Jan-11 09:30N 49°17' W 123°05'0 0.0
2018-Jan-11 09:00N 49°17' W 123°05'0 0.0
2018-Jan-11 08:30N 49°17' W 123°05'0 0.0
2018-Jan-11 08:00N 49°17' W 123°05'0 0.0
2018-Jan-11 07:30N 49°17' W 123°05'0 0.0
2018-Jan-11 07:00N 49°17' W 123°05'0 0.0
2018-Jan-11 06:30N 49°17' W 123°05'0 0.0
2018-Jan-11 06:00N 49°17' W 123°05'0 0.0
2018-Jan-11 05:30N 49°17' W 123°05'0 0.0
2018-Jan-11 05:00N 49°17' W 123°05'0 0.0
2018-Jan-11 04:30N 49°17' W 123°05'0 0.0
2018-Jan-11 04:00N 49°17' W 123°05'0 0.0
2018-Jan-11 03:30N 49°17' W 123°05'0 0.0
2018-Jan-11 03:00N 49°17' W 123°05'0 0.0
2018-Jan-11 02:30N 49°17' W 123°05'0 0.0
2018-Jan-11 02:00N 49°17' W 123°05'0 0.0
2018-Jan-11 01:30N 49°17' W 123°05'  

Dump ship's entire track history